PWSweather.com
Personal Weather Stations
Station Observations
DELHOVEN
DormagenDE 41540

DormagenDE 41540

Lat: 51.083, Lon: 6.775

Elevation: 120

Station Type: WH1080

Latest ConditionsUpdated 2:52:36 PM GMT+01:01 Sunday, Jun 25, 2017
Currently Today's Max Today's Min Today's Average
Temperature 73.2°F22.9°C 74.8°F23.8°C 63.9°F17.7°C 68.6°F20.3°C
Dew Point 57.5°F14.2°C 64.2°F17.9°C 56.2°F13.4°C 60.8°F16.0°C
Winds 5.4 mph SSW8.7 kmh SSW 15.2 mph WNW24.5 kmh WNW - 5.6 mph 9.0 kmh
Wind Gusts 10.7 mph17.2 kmh 19.7 mph31.7 kmh - -
Humidity 58% 95% 55% 77%
Pressure 29.98 in1015.2 mb 29.98 in1015.2 mb 29.92 in1013.2 mb -
Hour Temp Dew Point Humidity Winds Wind Gusts Pressure Precip Precip Rate Daily Precip Total
02:52 PM 73.2°F22.9°C 57.5°F14.2°C 58% 5.4 mph SSW8.7 kmh SSW 10.7 mph17.2 kmh 29.98 in1015.2 mb 0.00 in0.0 mm 0.00 in0.0 mm 0.00 in0.0 mm
02:47 PM 73.8°F23.2°C 57.6°F14.2°C 57% 13.0 mph W20.9 kmh W 15.9 mph25.6 kmh 29.98 in1015.2 mb 0.00 in0.0 mm 0.00 in0.0 mm 0.00 in0.0 mm
02:42 PM 74.1°F23.4°C 57.4°F14.1°C 56% 8.3 mph NW13.4 kmh NW 13.6 mph21.9 kmh 29.97 in1014.9 mb 0.00 in0.0 mm 0.00 in0.0 mm 0.00 in0.0 mm
02:37 PM 74.1°F23.4°C 58.9°F14.9°C 59% 13.0 mph S20.9 kmh S 16.8 mph27.0 kmh 29.97 in1014.9 mb 0.00 in0.0 mm 0.00 in0.0 mm 0.00 in0.0 mm
02:32 PM 73.2°F22.9°C 57.1°F13.9°C 57% 5.4 mph SW8.7 kmh SW 10.7 mph17.2 kmh 29.97 in1014.9 mb 0.00 in0.0 mm 0.00 in0.0 mm 0.00 in0.0 mm
02:27 PM 73.2°F22.9°C 57.1°F13.9°C 57% 7.6 mph W12.2 kmh W 10.7 mph17.2 kmh 29.97 in1014.9 mb 0.00 in0.0 mm 0.00 in0.0 mm 0.00 in0.0 mm
02:22 PM 73.8°F23.2°C 57.1°F13.9°C 56% 12.1 mph NW19.5 kmh NW 17.4 mph28.0 kmh 29.97 in1014.9 mb 0.00 in0.0 mm 0.00 in0.0 mm 0.00 in0.0 mm
02:17 PM 74.1°F23.4°C 57.4°F14.1°C 56% 7.6 mph NW12.2 kmh NW 14.5 mph23.3 kmh 29.97 in1014.9 mb 0.00 in0.0 mm 0.00 in0.0 mm 0.00 in0.0 mm
02:12 PM 74.3°F23.5°C 57.6°F14.2°C 56% 9.2 mph W14.8 kmh W 14.5 mph23.3 kmh 29.97 in1014.9 mb 0.00 in0.0 mm 0.00 in0.0 mm 0.00 in0.0 mm
02:07 PM 74.3°F23.5°C 57.6°F14.2°C 56% 4.5 mph W7.2 kmh W 6.9 mph11.1 kmh 29.97 in1014.9 mb 0.00 in0.0 mm 0.00 in0.0 mm 0.00 in0.0 mm
02:02 PM 73.9°F23.3°C 57.2°F14.0°C 56% 6.0 mph W9.7 kmh W 9.8 mph15.8 kmh 29.97 in1014.9 mb 0.00 in0.0 mm 0.00 in0.0 mm 0.00 in0.0 mm
01:57 PM 73.8°F23.2°C 57.1°F13.9°C 56% 8.3 mph NW13.4 kmh NW 14.5 mph23.3 kmh 29.97 in1014.9 mb 0.00 in0.0 mm 0.00 in0.0 mm 0.00 in0.0 mm
01:52 PM 73.6°F23.1°C 56.9°F13.8°C 56% 3.8 mph NW6.1 kmh NW 5.4 mph8.7 kmh 29.97 in1014.9 mb 0.00 in0.0 mm 0.00 in0.0 mm 0.00 in0.0 mm
01:47 PM 73.4°F23.0°C 56.2°F13.4°C 55% 7.6 mph W12.2 kmh W 13.0 mph20.9 kmh 29.97 in1014.9 mb 0.00 in0.0 mm 0.00 in0.0 mm 0.00 in0.0 mm
01:42 PM 73.4°F23.0°C 56.2°F13.4°C 55% 9.2 mph SW14.8 kmh SW 11.4 mph18.3 kmh 29.97 in1014.9 mb 0.00 in0.0 mm 0.00 in0.0 mm 0.00 in0.0 mm
01:37 PM 73.9°F23.3°C 56.7°F13.7°C 55% 8.3 mph NW13.4 kmh NW 15.9 mph25.6 kmh 29.98 in1015.2 mb 0.00 in0.0 mm 0.00 in0.0 mm 0.00 in0.0 mm
01:32 PM 73.6°F23.1°C 56.9°F13.8°C 56% 5.4 mph SW8.7 kmh SW 9.8 mph15.8 kmh 29.97 in1014.9 mb 0.00 in0.0 mm 0.00 in0.0 mm 0.00 in0.0 mm
01:27 PM 72.7°F22.6°C 57.0°F13.9°C 58% 9.2 mph NW14.8 kmh NW 16.8 mph27.0 kmh 29.97 in1014.9 mb 0.00 in0.0 mm 0.00 in0.0 mm 0.00 in0.0 mm
01:22 PM 72.7°F22.6°C 56.6°F13.7°C 57% 7.6 mph S12.2 kmh S 13.0 mph20.9 kmh 29.97 in1014.9 mb 0.00 in0.0 mm 0.00 in0.0 mm 0.00 in0.0 mm
01:17 PM 72.1°F22.3°C 57.0°F13.9°C 59% 4.5 mph WNW7.2 kmh WNW 9.2 mph14.8 kmh 29.97 in1014.9 mb 0.00 in0.0 mm 0.00 in0.0 mm 0.00 in0.0 mm
01:12 PM 71.8°F22.1°C 57.1°F13.9°C 60% 7.6 mph WNW12.2 kmh WNW 12.1 mph19.5 kmh 29.97 in1014.9 mb 0.00 in0.0 mm 0.00 in0.0 mm 0.00 in0.0 mm
01:07 PM 71.8°F22.1°C 56.7°F13.7°C 59% 5.4 mph NW8.7 kmh NW 9.8 mph15.8 kmh 29.97 in1014.9 mb 0.00 in0.0 mm 0.00 in0.0 mm 0.00 in0.0 mm
01:02 PM 72.1°F22.3°C 57.0°F13.9°C 59% 6.0 mph NW9.7 kmh NW 9.8 mph15.8 kmh 29.97 in1014.9 mb 0.00 in0.0 mm 0.00 in0.0 mm 0.00 in0.0 mm
12:57 PM 72.1°F22.3°C 57.0°F13.9°C 59% 4.5 mph NW7.2 kmh NW 7.6 mph12.2 kmh 29.97 in1014.9 mb 0.00 in0.0 mm 0.00 in0.0 mm 0.00 in0.0 mm
12:52 PM 72.0°F22.2°C 57.3°F14.1°C 60% 8.3 mph WNW13.4 kmh WNW 12.1 mph19.5 kmh 29.97 in1014.9 mb 0.00 in0.0 mm 0.00 in0.0 mm 0.00 in0.0 mm
12:47 PM 71.8°F22.1°C 57.1°F13.9°C 60% 6.0 mph NW9.7 kmh NW 8.3 mph13.4 kmh 29.97 in1014.9 mb 0.00 in0.0 mm 0.00 in0.0 mm 0.00 in0.0 mm
12:42 PM 72.0°F22.2°C 56.4°F13.6°C 58% 6.0 mph WSW9.7 kmh WSW 8.3 mph13.4 kmh 29.97 in1014.9 mb 0.00 in0.0 mm 0.00 in0.0 mm 0.00 in0.0 mm
12:37 PM 72.5°F22.5°C 56.9°F13.8°C 58% 3.8 mph NW6.1 kmh NW 7.6 mph12.2 kmh 29.97 in1014.9 mb 0.00 in0.0 mm 0.00 in0.0 mm 0.00 in0.0 mm
12:32 PM 73.2°F22.9°C 56.6°F13.7°C 56% 7.6 mph NW12.2 kmh NW 12.1 mph19.5 kmh 29.97 in1014.9 mb 0.00 in0.0 mm 0.00 in0.0 mm 0.00 in0.0 mm
12:27 PM 73.9°F23.3°C 57.2°F14.0°C 56% 6.9 mph SW11.1 kmh SW 14.5 mph23.3 kmh 29.96 in1014.6 mb 0.00 in0.0 mm 0.00 in0.0 mm 0.00 in0.0 mm
12:22 PM 74.5°F23.6°C 57.7°F14.3°C 56% 7.6 mph SE12.2 kmh SE 11.4 mph18.3 kmh 29.96 in1014.6 mb 0.00 in0.0 mm 0.00 in0.0 mm 0.00 in0.0 mm
12:17 PM 74.8°F23.8°C 58.1°F14.5°C 56% 4.5 mph SW7.2 kmh SW 7.6 mph12.2 kmh 29.97 in1014.9 mb 0.00 in0.0 mm 0.00 in0.0 mm 0.00 in0.0 mm
12:12 PM 74.8°F23.8°C 58.6°F14.8°C 57% 6.9 mph NW11.1 kmh NW 9.2 mph14.8 kmh 29.96 in1014.6 mb 0.00 in0.0 mm 0.00 in0.0 mm 0.00 in0.0 mm
12:07 PM 74.3°F23.5°C 58.6°F14.8°C 58% 6.9 mph W11.1 kmh W 12.1 mph19.5 kmh 29.97 in1014.9 mb 0.00 in0.0 mm 0.00 in0.0 mm 0.00 in0.0 mm
12:02 PM 73.9°F23.3°C 59.2°F15.1°C 60% 8.3 mph WNW13.4 kmh WNW 15.2 mph24.5 kmh 29.96 in1014.6 mb 0.00 in0.0 mm 0.00 in0.0 mm 0.00 in0.0 mm
11:57 AM 73.0°F22.8°C 58.8°F14.9°C 61% 9.8 mph 15.8 kmh 15.9 mph25.6 kmh 29.97 in1014.9 mb 0.00 in0.0 mm 0.00 in0.0 mm 0.00 in0.0 mm
11:52 AM 73.0°F22.8°C 58.8°F14.9°C 61% 6.0 mph W9.7 kmh W 12.1 mph19.5 kmh 29.96 in1014.6 mb 0.00 in0.0 mm 0.00 in0.0 mm 0.00 in0.0 mm
11:47 AM 73.0°F22.8°C 59.2°F15.1°C 62% 6.0 mph NW9.7 kmh NW 8.3 mph13.4 kmh 29.96 in1014.6 mb 0.00 in0.0 mm 0.00 in0.0 mm 0.00 in0.0 mm
11:42 AM 72.5°F22.5°C 59.6°F15.3°C 64% 6.0 mph W9.7 kmh W 10.7 mph17.2 kmh 29.96 in1014.6 mb 0.00 in0.0 mm 0.00 in0.0 mm 0.00 in0.0 mm
11:37 AM 71.8°F22.1°C 58.9°F14.9°C 64% 6.9 mph SW11.1 kmh SW 14.5 mph23.3 kmh 29.96 in1014.6 mb 0.00 in0.0 mm 0.00 in0.0 mm 0.00 in0.0 mm
11:32 AM 71.4°F21.9°C 59.5°F15.3°C 66% 8.3 mph W13.4 kmh W 12.1 mph19.5 kmh 29.96 in1014.6 mb 0.00 in0.0 mm 0.00 in0.0 mm 0.00 in0.0 mm
11:27 AM 71.2°F21.8°C 59.3°F15.2°C 66% 10.7 mph 17.2 kmh 13.6 mph21.9 kmh 29.96 in1014.6 mb 0.00 in0.0 mm 0.00 in0.0 mm 0.00 in0.0 mm
11:22 AM 71.1°F21.7°C 59.5°F15.3°C 67% 6.9 mph NW11.1 kmh NW 13.0 mph20.9 kmh 29.96 in1014.6 mb 0.00 in0.0 mm 0.00 in0.0 mm 0.00 in0.0 mm
11:17 AM 71.2°F21.8°C 59.7°F15.4°C 67% 4.5 mph SE7.2 kmh SE 7.6 mph12.2 kmh 29.96 in1014.6 mb 0.00 in0.0 mm 0.00 in0.0 mm 0.00 in0.0 mm
11:12 AM 71.2°F21.8°C 59.7°F15.4°C 67% 5.4 mph W8.7 kmh W 9.2 mph14.8 kmh 29.95 in1014.2 mb 0.00 in0.0 mm 0.00 in0.0 mm 0.00 in0.0 mm
11:07 AM 71.2°F21.8°C 60.1°F15.6°C 68% 6.0 mph WNW9.7 kmh WNW 9.8 mph15.8 kmh 29.96 in1014.6 mb 0.00 in0.0 mm 0.00 in0.0 mm 0.00 in0.0 mm
11:02 AM 71.2°F21.8°C 60.1°F15.6°C 68% 6.0 mph WNW9.7 kmh WNW 9.8 mph15.8 kmh 29.96 in1014.6 mb 0.00 in0.0 mm 0.00 in0.0 mm 0.00 in0.0 mm
10:57 AM 71.1°F21.7°C 60.0°F15.6°C 68% 3.8 mph SE6.1 kmh SE 6.9 mph11.1 kmh 29.95 in1014.2 mb 0.00 in0.0 mm 0.00 in0.0 mm 0.00 in0.0 mm
10:52 AM 70.5°F21.4°C 59.4°F15.2°C 68% 5.4 mph WNW8.7 kmh WNW 9.2 mph14.8 kmh 29.96 in1014.6 mb 0.00 in0.0 mm 0.00 in0.0 mm 0.00 in0.0 mm
10:47 AM 70.5°F21.4°C 59.0°F15.0°C 67% 8.3 mph NW13.4 kmh NW 14.5 mph23.3 kmh 29.96 in1014.6 mb 0.00 in0.0 mm 0.00 in0.0 mm 0.00 in0.0 mm
10:42 AM 70.7°F21.5°C 58.8°F14.9°C 66% 5.4 mph NW8.7 kmh NW 7.6 mph12.2 kmh 29.96 in1014.6 mb 0.00 in0.0 mm 0.00 in0.0 mm 0.00 in0.0 mm
10:37 AM 71.2°F21.8°C 58.9°F14.9°C 65% 9.2 mph WNW14.8 kmh WNW 16.8 mph27.0 kmh 29.95 in1014.2 mb 0.00 in0.0 mm 0.00 in0.0 mm 0.00 in0.0 mm
10:32 AM 71.4°F21.9°C 61.1°F16.2°C 70% 7.6 mph NW12.2 kmh NW 11.4 mph18.3 kmh 29.95 in1014.2 mb 0.00 in0.0 mm 0.00 in0.0 mm 0.00 in0.0 mm
10:27 AM 70.9°F21.6°C 60.6°F15.9°C 70% 6.9 mph SW11.1 kmh SW 13.0 mph20.9 kmh 29.95 in1014.2 mb 0.00 in0.0 mm 0.00 in0.0 mm 0.00 in0.0 mm
10:22 AM 70.7°F21.5°C 60.0°F15.6°C 69% 7.6 mph NW12.2 kmh NW 13.6 mph21.9 kmh 29.95 in1014.2 mb 0.00 in0.0 mm 0.00 in0.0 mm 0.00 in0.0 mm
10:17 AM 71.1°F21.7°C 60.8°F16.0°C 70% 6.0 mph W9.7 kmh W 9.2 mph14.8 kmh 29.95 in1014.2 mb 0.00 in0.0 mm 0.00 in0.0 mm 0.00 in0.0 mm
10:12 AM 71.2°F21.8°C 60.5°F15.8°C 69% 9.2 mph SW14.8 kmh SW 14.5 mph23.3 kmh 29.95 in1014.2 mb 0.00 in0.0 mm 0.00 in0.0 mm 0.00 in0.0 mm
10:07 AM 71.8°F22.1°C 60.2°F15.7°C 67% 6.9 mph NW11.1 kmh NW 11.4 mph18.3 kmh 29.94 in1013.9 mb 0.00 in0.0 mm 0.00 in0.0 mm 0.00 in0.0 mm
10:02 AM 71.4°F21.9°C 61.1°F16.2°C 70% 6.0 mph WNW9.7 kmh WNW 10.7 mph17.2 kmh 29.95 in1014.2 mb 0.00 in0.0 mm 0.00 in0.0 mm 0.00 in0.0 mm
09:57 AM 70.9°F21.6°C 61.0°F16.1°C 71% 4.5 mph NE7.2 kmh NE 7.6 mph12.2 kmh 29.95 in1014.2 mb 0.00 in0.0 mm 0.00 in0.0 mm 0.00 in0.0 mm
09:52 AM 70.3°F21.3°C 61.3°F16.3°C 73% 9.2 mph W14.8 kmh W 15.2 mph24.5 kmh 29.95 in1014.2 mb 0.00 in0.0 mm 0.00 in0.0 mm 0.00 in0.0 mm
09:47 AM 70.0°F21.1°C 61.3°F16.3°C 74% 15.2 mph WNW24.5 kmh WNW 19.7 mph31.7 kmh 29.95 in1014.2 mb 0.00 in0.0 mm 0.00 in0.0 mm 0.00 in0.0 mm
09:42 AM 69.8°F21.0°C 61.1°F16.2°C 74% 4.5 mph NW7.2 kmh NW 6.9 mph11.1 kmh 29.95 in1014.2 mb 0.00 in0.0 mm 0.00 in0.0 mm 0.00 in0.0 mm
09:37 AM 69.8°F21.0°C 61.1°F16.2°C 74% 6.0 mph 9.7 kmh 9.2 mph14.8 kmh 29.95 in1014.2 mb 0.00 in0.0 mm 0.00 in0.0 mm 0.00 in0.0 mm
09:32 AM 70.0°F21.1°C 61.3°F16.3°C 74% 6.0 mph NW9.7 kmh NW 10.7 mph17.2 kmh 29.95 in1014.2 mb 0.00 in0.0 mm 0.00 in0.0 mm 0.00 in0.0 mm
09:27 AM 70.0°F21.1°C 60.9°F16.1°C 73% 3.1 mph W5.0 kmh W 6.0 mph9.7 kmh 29.94 in1013.9 mb 0.00 in0.0 mm 0.00 in0.0 mm 0.00 in0.0 mm
09:22 AM 70.3°F21.3°C 61.3°F16.3°C 73% 8.3 mph NE13.4 kmh NE 14.5 mph23.3 kmh 29.94 in1013.9 mb 0.00 in0.0 mm 0.00 in0.0 mm 0.00 in0.0 mm
09:17 AM 70.5°F21.4°C 61.8°F16.6°C 74% 7.6 mph 12.2 kmh 13.6 mph21.9 kmh 29.94 in1013.9 mb 0.00 in0.0 mm 0.00 in0.0 mm 0.00 in0.0 mm
09:12 AM 70.5°F21.4°C 62.6°F17.0°C 76% 6.9 mph NW11.1 kmh NW 11.4 mph18.3 kmh 29.94 in1013.9 mb 0.00 in0.0 mm 0.00 in0.0 mm 0.00 in0.0 mm
09:07 AM 69.4°F20.8°C 63.0°F17.2°C 80% 4.5 mph NW7.2 kmh NW 7.6 mph12.2 kmh 29.93 in1013.5 mb 0.00 in0.0 mm 0.00 in0.0 mm 0.00 in0.0 mm
09:02 AM 69.4°F20.8°C 63.0°F17.2°C 80% 4.5 mph NW7.2 kmh NW 7.6 mph12.2 kmh 29.93 in1013.5 mb 0.00 in0.0 mm 0.00 in0.0 mm 0.00 in0.0 mm
08:57 AM 69.3°F20.7°C 62.8°F17.1°C 80% 6.0 mph NW9.7 kmh NW 10.7 mph17.2 kmh 29.94 in1013.9 mb 0.00 in0.0 mm 0.00 in0.0 mm 0.00 in0.0 mm
08:52 AM 69.6°F20.9°C 63.2°F17.3°C 80% 9.2 mph SW14.8 kmh SW 16.8 mph27.0 kmh 29.93 in1013.5 mb 0.00 in0.0 mm 0.00 in0.0 mm 0.00 in0.0 mm
08:47 AM 69.3°F20.7°C 63.2°F17.3°C 81% 5.4 mph SSE8.7 kmh SSE 8.3 mph13.4 kmh 29.93 in1013.5 mb 0.00 in0.0 mm 0.00 in0.0 mm 0.00 in0.0 mm
08:42 AM 68.9°F20.5°C 63.5°F17.5°C 83% 6.9 mph NW11.1 kmh NW 13.6 mph21.9 kmh 29.93 in1013.5 mb 0.00 in0.0 mm 0.00 in0.0 mm 0.00 in0.0 mm
08:37 AM 68.2°F20.1°C 63.5°F17.5°C 85% 6.0 mph SW9.7 kmh SW 9.8 mph15.8 kmh 29.93 in1013.5 mb 0.00 in0.0 mm 0.00 in0.0 mm 0.00 in0.0 mm
08:32 AM 67.6°F19.8°C 63.6°F17.6°C 87% 6.9 mph NW11.1 kmh NW 11.4 mph18.3 kmh 29.93 in1013.5 mb 0.00 in0.0 mm 0.00 in0.0 mm 0.00 in0.0 mm
08:27 AM 67.3°F19.6°C 63.3°F17.4°C 87% 6.9 mph 11.1 kmh 10.7 mph17.2 kmh 29.93 in1013.5 mb 0.00 in0.0 mm 0.00 in0.0 mm 0.00 in0.0 mm
08:22 AM 67.5°F19.7°C 63.1°F17.3°C 86% 5.4 mph NW8.7 kmh NW 10.7 mph17.2 kmh 29.93 in1013.5 mb 0.00 in0.0 mm 0.00 in0.0 mm 0.00 in0.0 mm
08:17 AM 67.6°F19.8°C 63.3°F17.4°C 86% 10.7 mph SW17.2 kmh SW 18.3 mph29.5 kmh 29.93 in1013.5 mb 0.00 in0.0 mm 0.00 in0.0 mm 0.00 in0.0 mm
08:12 AM 67.5°F19.7°C 63.1°F17.3°C 86% 4.5 mph NW7.2 kmh NW 8.3 mph13.4 kmh 29.93 in1013.5 mb 0.00 in0.0 mm 0.00 in0.0 mm 0.00 in0.0 mm
08:06 AM 67.5°F19.7°C 63.4°F17.4°C 87% 4.5 mph WSW7.2 kmh WSW 8.3 mph13.4 kmh 29.93 in1013.5 mb 0.00 in0.0 mm 0.00 in0.0 mm 0.00 in0.0 mm
08:01 AM 67.5°F19.7°C 63.8°F17.7°C 88% 7.6 mph NW12.2 kmh NW 13.6 mph21.9 kmh 29.93 in1013.5 mb 0.00 in0.0 mm 0.00 in0.0 mm 0.00 in0.0 mm
07:56 AM 67.3°F19.6°C 64.2°F17.9°C 90% 7.6 mph NW12.2 kmh NW 9.8 mph15.8 kmh 29.93 in1013.5 mb 0.00 in0.0 mm 0.00 in0.0 mm 0.00 in0.0 mm
07:51 AM 66.6°F19.2°C 63.5°F17.5°C 90% 3.8 mph SW6.1 kmh SW 7.6 mph12.2 kmh 29.93 in1013.5 mb 0.00 in0.0 mm 0.00 in0.0 mm 0.00 in0.0 mm
07:46 AM 66.4°F19.1°C 63.7°F17.6°C 91% 4.5 mph NW7.2 kmh NW 7.6 mph12.2 kmh 29.93 in1013.5 mb 0.00 in0.0 mm 0.00 in0.0 mm 0.00 in0.0 mm
07:41 AM 66.2°F19.0°C 63.5°F17.5°C 91% 6.0 mph SW9.7 kmh SW 10.7 mph17.2 kmh 29.92 in1013.2 mb 0.00 in0.0 mm 0.00 in0.0 mm 0.00 in0.0 mm
07:36 AM 66.2°F19.0°C 63.8°F17.7°C 92% 6.0 mph 9.7 kmh 13.6 mph21.9 kmh 29.93 in1013.5 mb 0.00 in0.0 mm 0.00 in0.0 mm 0.00 in0.0 mm
07:31 AM 66.0°F18.9°C 63.6°F17.6°C 92% 3.8 mph SW6.1 kmh SW 8.3 mph13.4 kmh 29.93 in1013.5 mb 0.00 in0.0 mm 0.00 in0.0 mm 0.00 in0.0 mm
07:26 AM 66.4°F19.1°C 64.0°F17.8°C 92% 7.6 mph WNW12.2 kmh WNW 13.0 mph20.9 kmh 29.93 in1013.5 mb 0.00 in0.0 mm 0.00 in0.0 mm 0.00 in0.0 mm
07:21 AM 66.2°F19.0°C 63.8°F17.7°C 92% 3.8 mph WSW6.1 kmh WSW 5.4 mph8.7 kmh 29.93 in1013.5 mb 0.00 in0.0 mm 0.00 in0.0 mm 0.00 in0.0 mm
07:16 AM 66.2°F19.0°C 64.1°F17.8°C 93% 5.4 mph W8.7 kmh W 9.8 mph15.8 kmh 29.93 in1013.5 mb 0.00 in0.0 mm 0.00 in0.0 mm 0.00 in0.0 mm
07:11 AM 65.7°F18.7°C 64.2°F17.9°C 95% 2.2 mph W3.5 kmh W 5.4 mph8.7 kmh 29.94 in1013.9 mb 0.00 in0.0 mm 0.00 in0.0 mm 0.00 in0.0 mm
07:06 AM 65.1°F18.4°C 63.6°F17.6°C 95% 6.9 mph SW11.1 kmh SW 10.7 mph17.2 kmh 29.94 in1013.9 mb 0.00 in0.0 mm 0.00 in0.0 mm 0.00 in0.0 mm
07:01 AM 65.1°F18.4°C 63.6°F17.6°C 95% 6.9 mph SW11.1 kmh SW 10.7 mph17.2 kmh 29.94 in1013.9 mb 0.00 in0.0 mm 0.00 in0.0 mm 0.00 in0.0 mm
06:56 AM 65.1°F18.4°C 63.6°F17.6°C 95% 3.8 mph SW6.1 kmh SW 5.4 mph8.7 kmh 29.94 in1013.9 mb 0.00 in0.0 mm 0.00 in0.0 mm 0.00 in0.0 mm
06:51 AM 64.9°F18.3°C 63.2°F17.3°C 94% 3.1 mph S5.0 kmh S 5.4 mph8.7 kmh 29.94 in1013.9 mb 0.00 in0.0 mm 0.00 in0.0 mm 0.00 in0.0 mm
06:46 AM 64.8°F18.2°C 63.0°F17.2°C 94% 4.5 mph NW7.2 kmh NW 9.2 mph14.8 kmh 29.94 in1013.9 mb 0.00 in0.0 mm 0.00 in0.0 mm 0.00 in0.0 mm
06:41 AM 64.9°F18.3°C 63.2°F17.3°C 94% 4.5 mph SE7.2 kmh SE 7.6 mph12.2 kmh 29.94 in1013.9 mb 0.00 in0.0 mm 0.00 in0.0 mm 0.00 in0.0 mm
06:36 AM 64.8°F18.2°C 63.0°F17.2°C 94% 4.5 mph W7.2 kmh W 8.3 mph13.4 kmh 29.94 in1013.9 mb 0.00 in0.0 mm 0.00 in0.0 mm 0.00 in0.0 mm
06:31 AM 64.6°F18.1°C 62.8°F17.1°C 94% 4.5 mph NW7.2 kmh NW 10.7 mph17.2 kmh 29.94 in1013.9 mb 0.00 in0.0 mm 0.00 in0.0 mm 0.00 in0.0 mm
06:26 AM 64.4°F18.0°C 62.6°F17.0°C 94% 3.1 mph 5.0 kmh 8.3 mph13.4 kmh 29.94 in1013.9 mb 0.00 in0.0 mm 0.00 in0.0 mm 0.00 in0.0 mm
06:21 AM 64.2°F17.9°C 62.2°F16.8°C 93% 3.8 mph NW6.1 kmh NW 5.4 mph8.7 kmh 29.94 in1013.9 mb 0.00 in0.0 mm 0.00 in0.0 mm 0.00 in0.0 mm
06:16 AM 64.4°F18.0°C 62.9°F17.2°C 95% 4.5 mph SW7.2 kmh SW 6.9 mph11.1 kmh 29.94 in1013.9 mb 0.00 in0.0 mm 0.00 in0.0 mm 0.00 in0.0 mm
06:11 AM 64.4°F18.0°C 62.9°F17.2°C 95% 5.4 mph NW8.7 kmh NW 7.6 mph12.2 kmh 29.93 in1013.5 mb 0.00 in0.0 mm 0.00 in0.0 mm 0.00 in0.0 mm
06:06 AM 64.4°F18.0°C 62.9°F17.2°C 95% 6.0 mph SW9.7 kmh SW 9.2 mph14.8 kmh 29.93 in1013.5 mb 0.00 in0.0 mm 0.00 in0.0 mm 0.00 in0.0 mm
06:01 AM 64.2°F17.9°C 62.5°F16.9°C 94% 3.8 mph NNE6.1 kmh NNE 6.0 mph9.7 kmh 29.94 in1013.9 mb 0.00 in0.0 mm 0.00 in0.0 mm 0.00 in0.0 mm
05:56 AM 64.2°F17.9°C 62.5°F16.9°C 94% 3.8 mph W6.1 kmh W 7.6 mph12.2 kmh 29.93 in1013.5 mb 0.00 in0.0 mm 0.00 in0.0 mm 0.00 in0.0 mm
05:51 AM 64.0°F17.8°C 62.3°F16.8°C 94% 3.8 mph W6.1 kmh W 6.9 mph11.1 kmh 29.93 in1013.5 mb 0.00 in0.0 mm 0.00 in0.0 mm 0.00 in0.0 mm
05:46 AM 64.0°F17.8°C 62.3°F16.8°C 94% 5.4 mph E8.7 kmh E 11.4 mph18.3 kmh 29.94 in1013.9 mb 0.00 in0.0 mm 0.00 in0.0 mm 0.00 in0.0 mm
05:41 AM 64.0°F17.8°C 62.3°F16.8°C 94% 3.1 mph SW5.0 kmh SW 5.4 mph8.7 kmh 29.94 in1013.9 mb 0.00 in0.0 mm 0.00 in0.0 mm 0.00 in0.0 mm
05:36 AM 64.0°F17.8°C 62.3°F16.8°C 94% 3.8 mph W6.1 kmh W 6.9 mph11.1 kmh 29.94 in1013.9 mb 0.00 in0.0 mm 0.00 in0.0 mm 0.00 in0.0 mm
05:31 AM 64.0°F17.8°C 62.0°F16.7°C 93% 5.4 mph SW8.7 kmh SW 11.4 mph18.3 kmh 29.94 in1013.9 mb 0.00 in0.0 mm 0.00 in0.0 mm 0.00 in0.0 mm
05:26 AM 64.0°F17.8°C 62.0°F16.7°C 93% 4.5 mph SW7.2 kmh SW 9.2 mph14.8 kmh 29.94 in1013.9 mb 0.00 in0.0 mm 0.00 in0.0 mm 0.00 in0.0 mm
05:21 AM 63.9°F17.7°C 61.8°F16.6°C 93% 4.5 mph W7.2 kmh W 7.6 mph12.2 kmh 29.94 in1013.9 mb 0.00 in0.0 mm 0.00 in0.0 mm 0.00 in0.0 mm
05:16 AM 64.2°F17.9°C 61.8°F16.6°C 92% 3.1 mph W5.0 kmh W 5.4 mph8.7 kmh 29.94 in1013.9 mb 0.00 in0.0 mm 0.00 in0.0 mm 0.00 in0.0 mm
05:11 AM 64.2°F17.9°C 61.8°F16.6°C 92% 5.4 mph SW8.7 kmh SW 6.0 mph9.7 kmh 29.94 in1013.9 mb 0.00 in0.0 mm 0.00 in0.0 mm 0.00 in0.0 mm
05:06 AM 64.8°F18.2°C 61.8°F16.6°C 90% 3.8 mph SW6.1 kmh SW 5.4 mph8.7 kmh 29.94 in1013.9 mb 0.00 in0.0 mm 0.00 in0.0 mm 0.00 in0.0 mm
05:01 AM 64.8°F18.2°C 61.8°F16.6°C 90% 3.8 mph SW6.1 kmh SW 5.4 mph8.7 kmh 29.94 in1013.9 mb 0.00 in0.0 mm 0.00 in0.0 mm 0.00 in0.0 mm
04:56 AM 64.9°F18.3°C 61.6°F16.4°C 89% 3.1 mph SE5.0 kmh SE 5.4 mph8.7 kmh 29.95 in1014.2 mb 0.00 in0.0 mm 0.00 in0.0 mm 0.00 in0.0 mm
04:51 AM 65.3°F18.5°C 61.7°F16.5°C 88% 6.9 mph NW11.1 kmh NW 9.8 mph15.8 kmh 29.94 in1013.9 mb 0.00 in0.0 mm 0.00 in0.0 mm 0.00 in0.0 mm
04:46 AM 65.8°F18.8°C 61.5°F16.4°C 86% 3.8 mph 6.1 kmh 8.3 mph13.4 kmh 29.95 in1014.2 mb 0.00 in0.0 mm 0.00 in0.0 mm 0.00 in0.0 mm
04:41 AM 66.0°F18.9°C 61.4°F16.3°C 85% 6.0 mph W9.7 kmh W 9.2 mph14.8 kmh 29.94 in1013.9 mb 0.00 in0.0 mm 0.00 in0.0 mm 0.00 in0.0 mm
04:36 AM 66.4°F19.1°C 61.4°F16.3°C 84% 5.4 mph 8.7 kmh 8.3 mph13.4 kmh 29.94 in1013.9 mb 0.00 in0.0 mm 0.00 in0.0 mm 0.00 in0.0 mm
04:31 AM 66.6°F19.2°C 61.2°F16.2°C 83% 5.4 mph SSE8.7 kmh SSE 9.8 mph15.8 kmh 29.94 in1013.9 mb 0.00 in0.0 mm 0.00 in0.0 mm 0.00 in0.0 mm
04:26 AM 66.6°F19.2°C 60.9°F16.1°C 82% 3.8 mph NW6.1 kmh NW 6.0 mph9.7 kmh 29.94 in1013.9 mb 0.00 in0.0 mm 0.00 in0.0 mm 0.00 in0.0 mm
04:21 AM 66.4°F19.1°C 60.7°F15.9°C 82% 6.9 mph WNW11.1 kmh WNW 10.7 mph17.2 kmh 29.94 in1013.9 mb 0.00 in0.0 mm 0.00 in0.0 mm 0.00 in0.0 mm
04:16 AM 66.6°F19.2°C 60.9°F16.1°C 82% 3.8 mph NW6.1 kmh NW 5.4 mph8.7 kmh 29.95 in1014.2 mb 0.00 in0.0 mm 0.00 in0.0 mm 0.00 in0.0 mm
04:11 AM 66.6°F19.2°C 60.9°F16.1°C 82% 2.2 mph NW3.5 kmh NW 4.5 mph7.2 kmh 29.94 in1013.9 mb 0.00 in0.0 mm 0.00 in0.0 mm 0.00 in0.0 mm
04:06 AM 66.6°F19.2°C 60.5°F15.8°C 81% 2.2 mph NW3.5 kmh NW 3.1 mph5.0 kmh 29.94 in1013.9 mb 0.00 in0.0 mm 0.00 in0.0 mm 0.00 in0.0 mm
04:01 AM 66.7°F19.3°C 60.7°F15.9°C 81% 3.1 mph SW5.0 kmh SW 6.0 mph9.7 kmh 29.95 in1014.2 mb 0.00 in0.0 mm 0.00 in0.0 mm 0.00 in0.0 mm
03:56 AM 66.7°F19.3°C 60.7°F15.9°C 81% 3.8 mph SW6.1 kmh SW 5.4 mph8.7 kmh 29.94 in1013.9 mb 0.00 in0.0 mm 0.00 in0.0 mm 0.00 in0.0 mm
03:51 AM 66.9°F19.4°C 60.9°F16.1°C 81% 4.5 mph NW7.2 kmh NW 8.3 mph13.4 kmh 29.94 in1013.9 mb 0.00 in0.0 mm 0.00 in0.0 mm 0.00 in0.0 mm
03:46 AM 67.1°F19.5°C 60.7°F15.9°C 80% 3.1 mph SW5.0 kmh SW 4.5 mph7.2 kmh 29.95 in1014.2 mb 0.00 in0.0 mm 0.00 in0.0 mm 0.00 in0.0 mm
03:41 AM 67.1°F19.5°C 60.7°F15.9°C 80% 3.8 mph SW6.1 kmh SW 6.0 mph9.7 kmh 29.95 in1014.2 mb 0.00 in0.0 mm 0.00 in0.0 mm 0.00 in0.0 mm
03:36 AM 67.1°F19.5°C 60.7°F15.9°C 80% 5.4 mph W8.7 kmh W 9.8 mph15.8 kmh 29.95 in1014.2 mb 0.00 in0.0 mm 0.00 in0.0 mm 0.00 in0.0 mm
03:31 AM 67.1°F19.5°C 60.7°F15.9°C 80% 5.4 mph S8.7 kmh S 8.3 mph13.4 kmh 29.95 in1014.2 mb 0.00 in0.0 mm 0.00 in0.0 mm 0.00 in0.0 mm
03:26 AM 67.1°F19.5°C 60.7°F15.9°C 80% 4.5 mph W7.2 kmh W 7.6 mph12.2 kmh 29.95 in1014.2 mb 0.00 in0.0 mm 0.00 in0.0 mm 0.00 in0.0 mm
03:21 AM 66.9°F19.4°C 60.5°F15.8°C 80% 6.0 mph NW9.7 kmh NW 9.2 mph14.8 kmh 29.95 in1014.2 mb 0.00 in0.0 mm 0.00 in0.0 mm 0.00 in0.0 mm
03:16 AM 67.1°F19.5°C 60.7°F15.9°C 80% 9.2 mph W14.8 kmh W 15.2 mph24.5 kmh 29.95 in1014.2 mb 0.00 in0.0 mm 0.00 in0.0 mm 0.00 in0.0 mm
03:11 AM 67.1°F19.5°C 60.7°F15.9°C 80% 5.4 mph W8.7 kmh W 11.4 mph18.3 kmh 29.95 in1014.2 mb 0.00 in0.0 mm 0.00 in0.0 mm 0.00 in0.0 mm
03:06 AM 67.1°F19.5°C 60.7°F15.9°C 80% 5.4 mph NW8.7 kmh NW 9.2 mph14.8 kmh 29.95 in1014.2 mb 0.00 in0.0 mm 0.00 in0.0 mm 0.00 in0.0 mm
03:01 AM 67.1°F19.5°C 60.7°F15.9°C 80% 5.4 mph NW8.7 kmh NW 9.2 mph14.8 kmh 29.95 in1014.2 mb 0.00 in0.0 mm 0.00 in0.0 mm 0.00 in0.0 mm
02:56 AM 67.1°F19.5°C 60.7°F15.9°C 80% 5.4 mph NW8.7 kmh NW 8.3 mph13.4 kmh 29.95 in1014.2 mb 0.00 in0.0 mm 0.00 in0.0 mm 0.00 in0.0 mm
02:51 AM 67.1°F19.5°C 60.7°F15.9°C 80% 3.8 mph SW6.1 kmh SW 6.0 mph9.7 kmh 29.95 in1014.2 mb 0.00 in0.0 mm 0.00 in0.0 mm 0.00 in0.0 mm
02:46 AM 67.1°F19.5°C 60.7°F15.9°C 80% 3.1 mph SW5.0 kmh SW 5.4 mph8.7 kmh 29.95 in1014.2 mb 0.00 in0.0 mm 0.00 in0.0 mm 0.00 in0.0 mm
02:41 AM 67.1°F19.5°C 60.7°F15.9°C 80% 4.5 mph NW7.2 kmh NW 8.3 mph13.4 kmh 29.96 in1014.6 mb 0.00 in0.0 mm 0.00 in0.0 mm 0.00 in0.0 mm
02:36 AM 67.3°F19.6°C 60.9°F16.1°C 80% 3.1 mph SW5.0 kmh SW 5.4 mph8.7 kmh 29.96 in1014.6 mb 0.00 in0.0 mm 0.00 in0.0 mm 0.00 in0.0 mm
02:31 AM 67.3°F19.6°C 60.9°F16.1°C 80% 6.0 mph SW9.7 kmh SW 11.4 mph18.3 kmh 29.96 in1014.6 mb 0.00 in0.0 mm 0.00 in0.0 mm 0.00 in0.0 mm
02:26 AM 67.3°F19.6°C 60.9°F16.1°C 80% 5.4 mph NW8.7 kmh NW 10.7 mph17.2 kmh 29.96 in1014.6 mb 0.00 in0.0 mm 0.00 in0.0 mm 0.00 in0.0 mm
02:21 AM 67.3°F19.6°C 60.9°F16.1°C 80% 4.5 mph NW7.2 kmh NW 6.0 mph9.7 kmh 29.96 in1014.6 mb 0.00 in0.0 mm 0.00 in0.0 mm 0.00 in0.0 mm
02:16 AM 67.3°F19.6°C 60.9°F16.1°C 80% 3.1 mph SW5.0 kmh SW 5.4 mph8.7 kmh 29.96 in1014.6 mb 0.00 in0.0 mm 0.00 in0.0 mm 0.00 in0.0 mm
02:11 AM 67.5°F19.7°C 61.1°F16.2°C 80% 4.5 mph WNW7.2 kmh WNW 7.6 mph12.2 kmh 29.96 in1014.6 mb 0.00 in0.0 mm 0.00 in0.0 mm 0.00 in0.0 mm
02:06 AM 67.5°F19.7°C 61.1°F16.2°C 80% 3.1 mph W5.0 kmh W 6.0 mph9.7 kmh 29.96 in1014.6 mb 0.00 in0.0 mm 0.00 in0.0 mm 0.00 in0.0 mm
02:01 AM 67.3°F19.6°C 61.2°F16.2°C 81% 6.0 mph W9.7 kmh W 10.7 mph17.2 kmh 29.96 in1014.6 mb 0.00 in0.0 mm 0.00 in0.0 mm 0.00 in0.0 mm
01:56 AM 67.3°F19.6°C 61.2°F16.2°C 81% 6.0 mph SW9.7 kmh SW 8.3 mph13.4 kmh 29.96 in1014.6 mb 0.00 in0.0 mm 0.00 in0.0 mm 0.00 in0.0 mm
01:51 AM 67.5°F19.7°C 61.4°F16.3°C 81% 5.4 mph W8.7 kmh W 8.3 mph13.4 kmh 29.96 in1014.6 mb 0.00 in0.0 mm 0.00 in0.0 mm 0.00 in0.0 mm
01:46 AM 67.5°F19.7°C 61.4°F16.3°C 81% 2.2 mph SW3.5 kmh SW 4.5 mph7.2 kmh 29.96 in1014.6 mb 0.00 in0.0 mm 0.00 in0.0 mm 0.00 in0.0 mm
01:41 AM 67.3°F19.6°C 61.2°F16.2°C 81% 3.1 mph W5.0 kmh W 4.5 mph7.2 kmh 29.96 in1014.6 mb 0.00 in0.0 mm 0.00 in0.0 mm 0.00 in0.0 mm
01:36 AM 67.3°F19.6°C 61.2°F16.2°C 81% 3.8 mph W6.1 kmh W 6.0 mph9.7 kmh 29.96 in1014.6 mb 0.00 in0.0 mm 0.00 in0.0 mm 0.00 in0.0 mm
01:31 AM 67.3°F19.6°C 61.6°F16.4°C 82% 3.8 mph NW6.1 kmh NW 7.6 mph12.2 kmh 29.96 in1014.6 mb 0.00 in0.0 mm 0.00 in0.0 mm 0.00 in0.0 mm
01:26 AM 67.3°F19.6°C 61.6°F16.4°C 82% 3.1 mph NNE5.0 kmh NNE 6.0 mph9.7 kmh 29.97 in1014.9 mb 0.00 in0.0 mm 0.00 in0.0 mm 0.00 in0.0 mm
01:21 AM 67.1°F19.5°C 61.8°F16.6°C 83% 4.5 mph SW7.2 kmh SW 8.3 mph13.4 kmh 29.97 in1014.9 mb 0.00 in0.0 mm 0.00 in0.0 mm 0.00 in0.0 mm
01:16 AM 67.1°F19.5°C 61.8°F16.6°C 83% 3.1 mph SW5.0 kmh SW 4.5 mph7.2 kmh 29.97 in1014.9 mb 0.00 in0.0 mm 0.00 in0.0 mm 0.00 in0.0 mm
01:11 AM 66.7°F19.3°C 61.7°F16.5°C 84% 3.8 mph NW6.1 kmh NW 5.4 mph8.7 kmh 29.97 in1014.9 mb 0.00 in0.0 mm 0.00 in0.0 mm 0.00 in0.0 mm
01:06 AM 66.7°F19.3°C 61.7°F16.5°C 84% 4.5 mph SW7.2 kmh SW 6.0 mph9.7 kmh 29.97 in1014.9 mb 0.00 in0.0 mm 0.00 in0.0 mm 0.00 in0.0 mm
01:01 AM 66.7°F19.3°C 61.7°F16.5°C 84% 4.5 mph SW7.2 kmh SW 6.0 mph9.7 kmh 29.97 in1014.9 mb 0.00 in0.0 mm 0.00 in0.0 mm 0.00 in0.0 mm
12:56 AM 66.6°F19.2°C 61.6°F16.4°C 84% 3.8 mph NW6.1 kmh NW 5.4 mph8.7 kmh 29.97 in1014.9 mb 0.00 in0.0 mm 0.00 in0.0 mm 0.00 in0.0 mm
12:51 AM 66.4°F19.1°C 61.7°F16.5°C 85% 2.2 mph NW3.5 kmh NW 6.0 mph9.7 kmh 29.97 in1014.9 mb 0.00 in0.0 mm 0.00 in0.0 mm 0.00 in0.0 mm
12:46 AM 66.2°F19.0°C 61.6°F16.4°C 85% 3.1 mph E5.0 kmh E 6.0 mph9.7 kmh 29.98 in1015.2 mb 0.00 in0.0 mm 0.00 in0.0 mm 0.00 in0.0 mm
12:41 AM 66.2°F19.0°C 61.9°F16.6°C 86% 3.8 mph SSE6.1 kmh SSE 7.6 mph12.2 kmh 29.97 in1014.9 mb 0.00 in0.0 mm 0.00 in0.0 mm 0.00 in0.0 mm
12:36 AM 66.2°F19.0°C 61.9°F16.6°C 86% 4.5 mph W7.2 kmh W 6.0 mph9.7 kmh 29.98 in1015.2 mb 0.00 in0.0 mm 0.00 in0.0 mm 0.00 in0.0 mm
12:31 AM 66.2°F19.0°C 61.9°F16.6°C 86% 3.1 mph S5.0 kmh S 4.5 mph7.2 kmh 29.98 in1015.2 mb 0.00 in0.0 mm 0.00 in0.0 mm 0.00 in0.0 mm
12:26 AM 66.0°F18.9°C 62.4°F16.9°C 88% 2.2 mph S3.5 kmh S 3.1 mph5.0 kmh 29.98 in1015.2 mb 0.00 in0.0 mm 0.00 in0.0 mm 0.00 in0.0 mm
12:21 AM 66.0°F18.9°C 62.4°F16.9°C 88% 3.1 mph 5.0 kmh 4.5 mph7.2 kmh 29.98 in1015.2 mb 0.00 in0.0 mm 0.00 in0.0 mm 0.00 in0.0 mm
12:16 AM 66.0°F18.9°C 62.4°F16.9°C 88% 2.2 mph S3.5 kmh S 3.1 mph5.0 kmh 29.98 in1015.2 mb 0.00 in0.0 mm 0.00 in0.0 mm 0.00 in0.0 mm
12:11 AM 66.0°F18.9°C 62.4°F16.9°C 88% 1.6 mph S2.6 kmh S 3.1 mph5.0 kmh 29.98 in1015.2 mb 0.00 in0.0 mm 0.00 in0.0 mm 0.00 in0.0 mm
12:06 AM 66.0°F18.9°C 62.4°F16.9°C 88% 3.1 mph S5.0 kmh S 3.8 mph6.1 kmh 29.98 in1015.2 mb 0.00 in0.0 mm 0.00 in0.0 mm 0.00 in0.0 mm
12:01 AM 66.0°F18.9°C 62.4°F16.9°C 88% 2.2 mph S3.5 kmh S 3.1 mph5.0 kmh 29.98 in1015.2 mb 0.00 in0.0 mm 0.00 in0.0 mm 0.00 in0.0 mm